sensor_id;sensor_type;location;lat;lon;timestamp;P1;durP1;ratioP1;P2;durP2;ratioP2
73814;SDS011;62145;55.648;37.602;2023-07-30T00:01:12;16.27;;;7.77;;
73814;SDS011;62145;55.648;37.602;2023-07-30T00:03:38;13.68;;;7.43;;
73814;SDS011;62145;55.648;37.602;2023-07-30T00:06:04;17.30;;;9.73;;
73814;SDS011;62145;55.648;37.602;2023-07-30T00:08:30;14.80;;;8.18;;
73814;SDS011;62145;55.648;37.602;2023-07-30T00:10:56;15.88;;;7.97;;
73814;SDS011;62145;55.648;37.602;2023-07-30T00:13:23;13.73;;;7.63;;
73814;SDS011;62145;55.648;37.602;2023-07-30T00:15:49;13.60;;;7.80;;
73814;SDS011;62145;55.648;37.602;2023-07-30T00:18:15;16.65;;;8.45;;
73814;SDS011;62145;55.648;37.602;2023-07-30T00:20:41;12.32;;;7.57;;
73814;SDS011;62145;55.648;37.602;2023-07-30T00:23:07;14.60;;;7.60;;
73814;SDS011;62145;55.648;37.602;2023-07-30T00:25:32;16.10;;;8.32;;
73814;SDS011;62145;55.648;37.602;2023-07-30T00:27:58;15.15;;;8.05;;
73814;SDS011;62145;55.648;37.602;2023-07-30T00:30:24;13.38;;;7.50;;
73814;SDS011;62145;55.648;37.602;2023-07-30T00:32:50;14.80;;;6.93;;
73814;SDS011;62145;55.648;37.602;2023-07-30T00:35:16;11.95;;;7.38;;
73814;SDS011;62145;55.648;37.602;2023-07-30T00:37:42;14.97;;;7.70;;
73814;SDS011;62145;55.648;37.602;2023-07-30T00:40:08;13.82;;;7.93;;
73814;SDS011;62145;55.648;37.602;2023-07-30T00:42:35;17.27;;;8.10;;
73814;SDS011;62145;55.648;37.602;2023-07-30T00:45:01;13.67;;;7.10;;
73814;SDS011;62145;55.648;37.602;2023-07-30T00:47:27;13.98;;;7.10;;
73814;SDS011;62145;55.648;37.602;2023-07-30T00:49:53;12.60;;;6.63;;
73814;SDS011;62145;55.648;37.602;2023-07-30T00:52:20;13.55;;;6.20;;
73814;SDS011;62145;55.648;37.602;2023-07-30T00:54:47;12.15;;;6.43;;
73814;SDS011;62145;55.648;37.602;2023-07-30T00:57:14;9.93;;;5.93;;
73814;SDS011;62145;55.648;37.602;2023-07-30T00:59:41;10.43;;;5.93;;
73814;SDS011;62145;55.648;37.602;2023-07-30T01:02:07;11.80;;;6.55;;
73814;SDS011;62145;55.648;37.602;2023-07-30T01:04:33;12.27;;;7.40;;
73814;SDS011;62145;55.648;37.602;2023-07-30T01:06:59;11.70;;;6.75;;
73814;SDS011;62145;55.648;37.602;2023-07-30T01:09:26;13.77;;;6.70;;
73814;SDS011;62145;55.648;37.602;2023-07-30T01:11:52;12.82;;;6.28;;
73814;SDS011;62145;55.648;37.602;2023-07-30T01:14:19;12.50;;;6.30;;
73814;SDS011;62145;55.648;37.602;2023-07-30T01:16:45;11.98;;;7.20;;
73814;SDS011;62145;55.648;37.602;2023-07-30T01:19:11;14.13;;;6.78;;
73814;SDS011;62145;55.648;37.602;2023-07-30T01:21:37;11.25;;;6.68;;
73814;SDS011;62145;55.648;37.602;2023-07-30T01:24:03;14.33;;;6.63;;
73814;SDS011;62145;55.648;37.602;2023-07-30T01:26:35;11.43;;;7.20;;
73814;SDS011;62145;55.648;37.602;2023-07-30T01:29:38;13.98;;;7.25;;
73814;SDS011;62145;55.648;37.602;2023-07-30T01:32:04;13.07;;;7.57;;
73814;SDS011;62145;55.648;37.602;2023-07-30T01:34:30;14.07;;;7.43;;
73814;SDS011;62145;55.648;37.602;2023-07-30T01:37:00;12.65;;;7.18;;
73814;SDS011;62145;55.648;37.602;2023-07-30T01:39:27;15.68;;;8.63;;
73814;SDS011;62145;55.648;37.602;2023-07-30T01:41:53;13.10;;;8.45;;
73814;SDS011;62145;55.648;37.602;2023-07-30T01:44:22;14.93;;;8.35;;
73814;SDS011;62145;55.648;37.602;2023-07-30T01:46:48;14.00;;;8.43;;
73814;SDS011;62145;55.648;37.602;2023-07-30T01:49:14;16.95;;;9.05;;
73814;SDS011;62145;55.648;37.602;2023-07-30T01:51:43;15.68;;;9.25;;
73814;SDS011;62145;55.648;37.602;2023-07-30T01:54:14;16.23;;;9.35;;
73814;SDS011;62145;55.648;37.602;2023-07-30T01:56:40;17.75;;;9.98;;
73814;SDS011;62145;55.648;37.602;2023-07-30T01:59:06;17.23;;;10.43;;
73814;SDS011;62145;55.648;37.602;2023-07-30T02:01:32;15.70;;;9.38;;
73814;SDS011;62145;55.648;37.602;2023-07-30T02:03:59;16.85;;;9.07;;
73814;SDS011;62145;55.648;37.602;2023-07-30T02:06:27;17.20;;;10.23;;
73814;SDS011;62145;55.648;37.602;2023-07-30T02:08:53;21.20;;;10.33;;
73814;SDS011;62145;55.648;37.602;2023-07-30T02:11:19;17.35;;;9.77;;
73814;SDS011;62145;55.648;37.602;2023-07-30T02:13:45;18.10;;;10.38;;
73814;SDS011;62145;55.648;37.602;2023-07-30T02:16:10;16.70;;;9.82;;
73814;SDS011;62145;55.648;37.602;2023-07-30T02:18:36;14.43;;;8.33;;
73814;SDS011;62145;55.648;37.602;2023-07-30T02:21:02;14.40;;;8.50;;
73814;SDS011;62145;55.648;37.602;2023-07-30T02:23:28;14.75;;;8.38;;
73814;SDS011;62145;55.648;37.602;2023-07-30T02:25:54;12.02;;;7.68;;
73814;SDS011;62145;55.648;37.602;2023-07-30T02:28:20;14.35;;;7.70;;
73814;SDS011;62145;55.648;37.602;2023-07-30T02:30:46;12.40;;;7.05;;
73814;SDS011;62145;55.648;37.602;2023-07-30T02:33:11;13.10;;;7.60;;
73814;SDS011;62145;55.648;37.602;2023-07-30T02:35:37;12.55;;;7.45;;
73814;SDS011;62145;55.648;37.602;2023-07-30T02:38:03;12.50;;;7.75;;
73814;SDS011;62145;55.648;37.602;2023-07-30T02:40:30;12.13;;;7.27;;
73814;SDS011;62145;55.648;37.602;2023-07-30T02:42:56;13.35;;;7.22;;
73814;SDS011;62145;55.648;37.602;2023-07-30T02:45:22;12.48;;;6.90;;
73814;SDS011;62145;55.648;37.602;2023-07-30T02:47:48;11.90;;;6.97;;
73814;SDS011;62145;55.648;37.602;2023-07-30T02:50:14;11.90;;;6.87;;
73814;SDS011;62145;55.648;37.602;2023-07-30T02:52:40;11.55;;;6.68;;
73814;SDS011;62145;55.648;37.602;2023-07-30T02:55:06;12.43;;;6.90;;
73814;SDS011;62145;55.648;37.602;2023-07-30T02:57:32;12.30;;;6.45;;
73814;SDS011;62145;55.648;37.602;2023-07-30T02:59:58;10.68;;;6.35;;
73814;SDS011;62145;55.648;37.602;2023-07-30T03:02:23;12.70;;;6.95;;
73814;SDS011;62145;55.648;37.602;2023-07-30T03:04:50;12.47;;;6.47;;
73814;SDS011;62145;55.648;37.602;2023-07-30T03:07:15;14.20;;;6.72;;
73814;SDS011;62145;55.648;37.602;2023-07-30T03:09:41;11.23;;;6.40;;
73814;SDS011;62145;55.648;37.602;2023-07-30T03:12:07;9.73;;;5.70;;
73814;SDS011;62145;55.648;37.602;2023-07-30T03:14:34;9.55;;;5.32;;
73814;SDS011;62145;55.648;37.602;2023-07-30T03:17:00;9.13;;;5.30;;
73814;SDS011;62145;55.648;37.602;2023-07-30T03:19:39;9.13;;;5.30;;
73814;SDS011;62145;55.648;37.602;2023-07-30T03:22:06;9.02;;;5.13;;
73814;SDS011;62145;55.648;37.602;2023-07-30T03:24:33;8.67;;;4.87;;
73814;SDS011;62145;55.648;37.602;2023-07-30T03:27:00;8.13;;;4.80;;
73814;SDS011;62145;55.648;37.602;2023-07-30T03:29:29;9.10;;;4.78;;
73814;SDS011;62145;55.648;37.602;2023-07-30T03:32:16;8.60;;;4.90;;
73814;SDS011;62145;55.648;37.602;2023-07-30T03:34:43;9.77;;;4.50;;
73814;SDS011;62145;55.648;37.602;2023-07-30T03:37:09;8.97;;;4.53;;
73814;SDS011;62145;55.648;37.602;2023-07-30T03:39:36;6.65;;;4.00;;
73814;SDS011;62145;55.648;37.602;2023-07-30T03:42:02;7.57;;;4.40;;
73814;SDS011;62145;55.648;37.602;2023-07-30T03:44:56;7.22;;;4.35;;
73814;SDS011;62145;55.648;37.602;2023-07-30T03:47:29;7.35;;;4.40;;
73814;SDS011;62145;55.648;37.602;2023-07-30T03:49:59;7.20;;;4.50;;
73814;SDS011;62145;55.648;37.602;2023-07-30T03:52:25;9.15;;;4.10;;
73814;SDS011;62145;55.648;37.602;2023-07-30T03:54:51;8.05;;;4.30;;
73814;SDS011;62145;55.648;37.602;2023-07-30T03:57:17;6.18;;;3.75;;
73814;SDS011;62145;55.648;37.602;2023-07-30T03:59:43;6.90;;;3.87;;
73814;SDS011;62145;55.648;37.602;2023-07-30T04:02:09;6.10;;;3.65;;
73814;SDS011;62145;55.648;37.602;2023-07-30T04:04:42;5.47;;;3.83;;
73814;SDS011;62145;55.648;37.602;2023-07-30T04:07:14;6.78;;;3.90;;
73814;SDS011;62145;55.648;37.602;2023-07-30T04:09:39;9.63;;;4.20;;
73814;SDS011;62145;55.648;37.602;2023-07-30T04:12:05;7.40;;;4.03;;
73814;SDS011;62145;55.648;37.602;2023-07-30T04:14:32;6.82;;;3.70;;
73814;SDS011;62145;55.648;37.602;2023-07-30T04:16:58;6.50;;;3.60;;
73814;SDS011;62145;55.648;37.602;2023-07-30T04:19:24;7.20;;;3.38;;
73814;SDS011;62145;55.648;37.602;2023-07-30T04:21:50;6.20;;;3.60;;
73814;SDS011;62145;55.648;37.602;2023-07-30T04:24:17;6.13;;;3.37;;
73814;SDS011;62145;55.648;37.602;2023-07-30T04:26:43;6.68;;;3.55;;
73814;SDS011;62145;55.648;37.602;2023-07-30T04:29:09;6.38;;;3.72;;
73814;SDS011;62145;55.648;37.602;2023-07-30T04:31:36;8.70;;;3.58;;
73814;SDS011;62145;55.648;37.602;2023-07-30T04:34:01;6.63;;;3.33;;
73814;SDS011;62145;55.648;37.602;2023-07-30T04:36:27;6.85;;;3.55;;
73814;SDS011;62145;55.648;37.602;2023-07-30T04:38:54;5.50;;;3.55;;
73814;SDS011;62145;55.648;37.602;2023-07-30T04:41:25;6.50;;;3.20;;
73814;SDS011;62145;55.648;37.602;2023-07-30T04:43:55;6.32;;;3.47;;
73814;SDS011;62145;55.648;37.602;2023-07-30T04:46:21;6.43;;;3.27;;
73814;SDS011;62145;55.648;37.602;2023-07-30T04:48:47;7.38;;;3.25;;
73814;SDS011;62145;55.648;37.602;2023-07-30T04:51:16;4.78;;;3.10;;
73814;SDS011;62145;55.648;37.602;2023-07-30T04:53:42;4.93;;;3.10;;
73814;SDS011;62145;55.648;37.602;2023-07-30T04:56:08;5.40;;;2.87;;
73814;SDS011;62145;55.648;37.602;2023-07-30T04:58:34;7.38;;;3.22;;
73814;SDS011;62145;55.648;37.602;2023-07-30T05:01:00;5.35;;;3.10;;
73814;SDS011;62145;55.648;37.602;2023-07-30T05:03:26;6.83;;;3.50;;
73814;SDS011;62145;55.648;37.602;2023-07-30T05:05:52;5.70;;;3.15;;
73814;SDS011;62145;55.648;37.602;2023-07-30T05:08:18;5.45;;;2.90;;
73814;SDS011;62145;55.648;37.602;2023-07-30T05:10:44;5.88;;;3.17;;
73814;SDS011;62145;55.648;37.602;2023-07-30T05:13:10;5.17;;;2.90;;
73814;SDS011;62145;55.648;37.602;2023-07-30T05:15:41;5.20;;;3.08;;
73814;SDS011;62145;55.648;37.602;2023-07-30T05:18:07;5.00;;;3.00;;
73814;SDS011;62145;55.648;37.602;2023-07-30T05:20:35;5.78;;;3.13;;
73814;SDS011;62145;55.648;37.602;2023-07-30T05:23:03;5.63;;;3.20;;
73814;SDS011;62145;55.648;37.602;2023-07-30T05:25:34;5.80;;;3.15;;
73814;SDS011;62145;55.648;37.602;2023-07-30T05:28:01;6.32;;;3.13;;
73814;SDS011;62145;55.648;37.602;2023-07-30T05:30:26;7.45;;;3.30;;
73814;SDS011;62145;55.648;37.602;2023-07-30T05:32:52;8.17;;;3.47;;
73814;SDS011;62145;55.648;37.602;2023-07-30T05:35:18;6.85;;;3.40;;
73814;SDS011;62145;55.648;37.602;2023-07-30T05:37:44;5.95;;;3.20;;
73814;SDS011;62145;55.648;37.602;2023-07-30T05:40:10;5.83;;;3.30;;
73814;SDS011;62145;55.648;37.602;2023-07-30T05:42:36;7.60;;;3.23;;
73814;SDS011;62145;55.648;37.602;2023-07-30T05:45:02;7.18;;;3.03;;
73814;SDS011;62145;55.648;37.602;2023-07-30T05:47:29;4.85;;;3.08;;
73814;SDS011;62145;55.648;37.602;2023-07-30T05:49:55;5.53;;;2.67;;
73814;SDS011;62145;55.648;37.602;2023-07-30T05:52:21;6.85;;;3.08;;
73814;SDS011;62145;55.648;37.602;2023-07-30T05:54:46;5.30;;;3.10;;
73814;SDS011;62145;55.648;37.602;2023-07-30T05:57:12;5.00;;;2.97;;
73814;SDS011;62145;55.648;37.602;2023-07-30T05:59:38;6.95;;;3.00;;
73814;SDS011;62145;55.648;37.602;2023-07-30T06:02:04;5.53;;;3.20;;
73814;SDS011;62145;55.648;37.602;2023-07-30T06:04:30;5.88;;;3.25;;
73814;SDS011;62145;55.648;37.602;2023-07-30T06:06:57;5.30;;;3.17;;
73814;SDS011;62145;55.648;37.602;2023-07-30T06:09:24;6.55;;;3.00;;
73814;SDS011;62145;55.648;37.602;2023-07-30T06:11:50;5.75;;;3.25;;
73814;SDS011;62145;55.648;37.602;2023-07-30T06:14:16;6.40;;;3.27;;
73814;SDS011;62145;55.648;37.602;2023-07-30T06:16:42;7.45;;;3.30;;
73814;SDS011;62145;55.648;37.602;2023-07-30T06:19:09;6.30;;;3.30;;
73814;SDS011;62145;55.648;37.602;2023-07-30T06:21:35;5.60;;;3.20;;
73814;SDS011;62145;55.648;37.602;2023-07-30T06:24:01;5.78;;;3.47;;
73814;SDS011;62145;55.648;37.602;2023-07-30T06:26:27;6.72;;;3.25;;
73814;SDS011;62145;55.648;37.602;2023-07-30T06:28:53;6.30;;;3.60;;
73814;SDS011;62145;55.648;37.602;2023-07-30T06:31:19;4.95;;;3.13;;
73814;SDS011;62145;55.648;37.602;2023-07-30T06:34:03;4.90;;;3.20;;
73814;SDS011;62145;55.648;37.602;2023-07-30T06:36:29;7.20;;;3.30;;
73814;SDS011;62145;55.648;37.602;2023-07-30T06:38:55;6.70;;;3.00;;
73814;SDS011;62145;55.648;37.602;2023-07-30T06:41:21;6.95;;;3.47;;
73814;SDS011;62145;55.648;37.602;2023-07-30T06:43:47;6.93;;;3.50;;
73814;SDS011;62145;55.648;37.602;2023-07-30T06:46:13;5.30;;;3.10;;
73814;SDS011;62145;55.648;37.602;2023-07-30T06:48:38;7.43;;;3.53;;
73814;SDS011;62145;55.648;37.602;2023-07-30T06:51:09;5.03;;;3.10;;
73814;SDS011;62145;55.648;37.602;2023-07-30T06:53:35;5.60;;;3.13;;
73814;SDS011;62145;55.648;37.602;2023-07-30T06:56:01;5.78;;;3.42;;
73814;SDS011;62145;55.648;37.602;2023-07-30T06:58:27;6.28;;;3.40;;
73814;SDS011;62145;55.648;37.602;2023-07-30T07:00:53;5.60;;;3.00;;
73814;SDS011;62145;55.648;37.602;2023-07-30T07:03:18;5.57;;;3.25;;
73814;SDS011;62145;55.648;37.602;2023-07-30T07:05:44;6.43;;;3.30;;
73814;SDS011;62145;55.648;37.602;2023-07-30T07:08:10;5.82;;;3.25;;
73814;SDS011;62145;55.648;37.602;2023-07-30T07:10:36;5.85;;;3.00;;
73814;SDS011;62145;55.648;37.602;2023-07-30T07:13:03;5.50;;;2.90;;
73814;SDS011;62145;55.648;37.602;2023-07-30T07:15:29;7.07;;;3.03;;
73814;SDS011;62145;55.648;37.602;2023-07-30T07:17:55;5.88;;;3.30;;
73814;SDS011;62145;55.648;37.602;2023-07-30T07:20:21;6.63;;;3.20;;
73814;SDS011;62145;55.648;37.602;2023-07-30T07:22:47;6.03;;;3.35;;
73814;SDS011;62145;55.648;37.602;2023-07-30T07:25:13;4.93;;;3.10;;
73814;SDS011;62145;55.648;37.602;2023-07-30T07:27:39;5.30;;;3.20;;
73814;SDS011;62145;55.648;37.602;2023-07-30T07:30:05;5.93;;;2.90;;
73814;SDS011;62145;55.648;37.602;2023-07-30T07:32:32;5.38;;;2.78;;
73814;SDS011;62145;55.648;37.602;2023-07-30T07:35:03;4.43;;;2.88;;
73814;SDS011;62145;55.648;37.602;2023-07-30T07:37:29;5.18;;;2.83;;
73814;SDS011;62145;55.648;37.602;2023-07-30T07:39:55;5.40;;;3.00;;
73814;SDS011;62145;55.648;37.602;2023-07-30T07:42:21;4.82;;;2.60;;
73814;SDS011;62145;55.648;37.602;2023-07-30T07:44:46;5.25;;;2.60;;
73814;SDS011;62145;55.648;37.602;2023-07-30T07:47:12;5.47;;;2.90;;
73814;SDS011;62145;55.648;37.602;2023-07-30T07:49:44;4.30;;;2.80;;
73814;SDS011;62145;55.648;37.602;2023-07-30T07:52:16;6.50;;;3.00;;
73814;SDS011;62145;55.648;37.602;2023-07-30T07:54:43;5.43;;;2.83;;
73814;SDS011;62145;55.648;37.602;2023-07-30T07:57:13;4.30;;;2.80;;
73814;SDS011;62145;55.648;37.602;2023-07-30T07:59:43;4.93;;;2.60;;
73814;SDS011;62145;55.648;37.602;2023-07-30T08:02:10;4.68;;;2.70;;
73814;SDS011;62145;55.648;37.602;2023-07-30T08:04:37;5.70;;;2.70;;
73814;SDS011;62145;55.648;37.602;2023-07-30T08:07:03;5.97;;;3.10;;
73814;SDS011;62145;55.648;37.602;2023-07-30T08:09:30;5.57;;;3.00;;
73814;SDS011;62145;55.648;37.602;2023-07-30T08:11:56;5.00;;;2.95;;
73814;SDS011;62145;55.648;37.602;2023-07-30T08:14:22;4.25;;;2.83;;
73814;SDS011;62145;55.648;37.602;2023-07-30T08:16:48;5.17;;;2.87;;
73814;SDS011;62145;55.648;37.602;2023-07-30T08:19:14;3.85;;;2.50;;
73814;SDS011;62145;55.648;37.602;2023-07-30T08:21:40;5.88;;;2.60;;
73814;SDS011;62145;55.648;37.602;2023-07-30T08:24:05;7.47;;;2.90;;
73814;SDS011;62145;55.648;37.602;2023-07-30T08:26:31;5.40;;;2.55;;
73814;SDS011;62145;55.648;37.602;2023-07-30T08:28:57;5.03;;;2.70;;
73814;SDS011;62145;55.648;37.602;2023-07-30T08:31:23;4.40;;;2.60;;
73814;SDS011;62145;55.648;37.602;2023-07-30T08:33:49;5.93;;;2.50;;
73814;SDS011;62145;55.648;37.602;2023-07-30T08:36:15;4.45;;;2.40;;
73814;SDS011;62145;55.648;37.602;2023-07-30T08:38:41;5.13;;;2.47;;
73814;SDS011;62145;55.648;37.602;2023-07-30T08:41:07;5.37;;;2.50;;
73814;SDS011;62145;55.648;37.602;2023-07-30T08:43:34;4.30;;;2.75;;
73814;SDS011;62145;55.648;37.602;2023-07-30T08:46:00;5.00;;;2.10;;
73814;SDS011;62145;55.648;37.602;2023-07-30T08:48:26;5.28;;;2.70;;
73814;SDS011;62145;55.648;37.602;2023-07-30T08:50:53;4.27;;;2.20;;
73814;SDS011;62145;55.648;37.602;2023-07-30T08:53:22;4.82;;;2.10;;
73814;SDS011;62145;55.648;37.602;2023-07-30T08:55:55;5.68;;;2.28;;
73814;SDS011;62145;55.648;37.602;2023-07-30T08:58:22;4.18;;;2.38;;
73814;SDS011;62145;55.648;37.602;2023-07-30T09:00:49;4.55;;;2.10;;
73814;SDS011;62145;55.648;37.602;2023-07-30T09:03:16;4.07;;;1.90;;
73814;SDS011;62145;55.648;37.602;2023-07-30T09:05:43;3.47;;;1.80;;
73814;SDS011;62145;55.648;37.602;2023-07-30T09:08:09;7.00;;;2.20;;
73814;SDS011;62145;55.648;37.602;2023-07-30T09:10:35;5.43;;;2.13;;
73814;SDS011;62145;55.648;37.602;2023-07-30T09:13:01;5.27;;;2.40;;
73814;SDS011;62145;55.648;37.602;2023-07-30T09:15:35;4.45;;;2.30;;
73814;SDS011;62145;55.648;37.602;2023-07-30T09:18:05;4.20;;;2.10;;
73814;SDS011;62145;55.648;37.602;2023-07-30T09:20:38;5.22;;;2.13;;
73814;SDS011;62145;55.648;37.602;2023-07-30T09:23:08;5.15;;;2.30;;
73814;SDS011;62145;55.648;37.602;2023-07-30T09:25:35;5.40;;;2.37;;
73814;SDS011;62145;55.648;37.602;2023-07-30T09:28:01;4.25;;;2.25;;
73814;SDS011;62145;55.648;37.602;2023-07-30T09:30:27;4.93;;;2.25;;
73814;SDS011;62145;55.648;37.602;2023-07-30T09:32:55;14.60;;;13.25;;
73814;SDS011;62145;55.648;37.602;2023-07-30T09:35:22;5.65;;;2.50;;
73814;SDS011;62145;55.648;37.602;2023-07-30T09:38:02;4.53;;;2.17;;
73814;SDS011;62145;55.648;37.602;2023-07-30T09:40:35;4.95;;;2.30;;
73814;SDS011;62145;55.648;37.602;2023-07-30T09:43:02;4.85;;;2.35;;
73814;SDS011;62145;55.648;37.602;2023-07-30T09:45:29;5.53;;;2.40;;
73814;SDS011;62145;55.648;37.602;2023-07-30T09:47:59;3.90;;;2.10;;
73814;SDS011;62145;55.648;37.602;2023-07-30T09:50:25;5.53;;;2.50;;
73814;SDS011;62145;55.648;37.602;2023-07-30T09:52:51;5.38;;;2.20;;
73814;SDS011;62145;55.648;37.602;2023-07-30T09:55:17;4.65;;;2.20;;
73814;SDS011;62145;55.648;37.602;2023-07-30T09:57:45;4.43;;;1.90;;
73814;SDS011;62145;55.648;37.602;2023-07-30T10:00:11;5.27;;;2.17;;
73814;SDS011;62145;55.648;37.602;2023-07-30T10:02:38;4.90;;;2.13;;
73814;SDS011;62145;55.648;37.602;2023-07-30T10:05:08;5.20;;;2.28;;
73814;SDS011;62145;55.648;37.602;2023-07-30T10:07:38;5.07;;;2.30;;
73814;SDS011;62145;55.648;37.602;2023-07-30T10:10:07;5.35;;;2.10;;
73814;SDS011;62145;55.648;37.602;2023-07-30T10:12:34;5.90;;;2.23;;
73814;SDS011;62145;55.648;37.602;2023-07-30T10:15:01;5.10;;;2.22;;
73814;SDS011;62145;55.648;37.602;2023-07-30T10:17:29;5.25;;;1.98;;
73814;SDS011;62145;55.648;37.602;2023-07-30T10:19:58;5.25;;;2.10;;
73814;SDS011;62145;55.648;37.602;2023-07-30T10:22:47;4.93;;;1.90;;
73814;SDS011;62145;55.648;37.602;2023-07-30T10:25:16;4.83;;;2.20;;
73814;SDS011;62145;55.648;37.602;2023-07-30T10:27:48;5.28;;;2.38;;
73814;SDS011;62145;55.648;37.602;2023-07-30T10:30:16;6.05;;;2.42;;
73814;SDS011;62145;55.648;37.602;2023-07-30T10:38:18;4.30;;;2.03;;
73814;SDS011;62145;55.648;37.602;2023-07-30T10:43:30;5.00;;;2.00;;
73814;SDS011;62145;55.648;37.602;2023-07-30T10:45:56;4.75;;;2.20;;
73814;SDS011;62145;55.648;37.602;2023-07-30T10:48:29;4.60;;;2.00;;
73814;SDS011;62145;55.648;37.602;2023-07-30T10:50:57;4.63;;;2.00;;
73814;SDS011;62145;55.648;37.602;2023-07-30T10:53:23;4.65;;;2.03;;
73814;SDS011;62145;55.648;37.602;2023-07-30T10:55:48;4.55;;;2.20;;
73814;SDS011;62145;55.648;37.602;2023-07-30T10:58:14;4.53;;;2.10;;
73814;SDS011;62145;55.648;37.602;2023-07-30T11:00:41;5.50;;;1.90;;
73814;SDS011;62145;55.648;37.602;2023-07-30T11:03:07;5.10;;;2.10;;
73814;SDS011;62145;55.648;37.602;2023-07-30T11:05:33;4.60;;;2.03;;
73814;SDS011;62145;55.648;37.602;2023-07-30T11:08:00;5.43;;;2.00;;
73814;SDS011;62145;55.648;37.602;2023-07-30T11:10:26;4.75;;;1.80;;
73814;SDS011;62145;55.648;37.602;2023-07-30T11:12:53;5.17;;;2.10;;
73814;SDS011;62145;55.648;37.602;2023-07-30T11:15:19;4.15;;;2.13;;
73814;SDS011;62145;55.648;37.602;2023-07-30T11:17:45;4.85;;;2.13;;
73814;SDS011;62145;55.648;37.602;2023-07-30T11:20:29;3.85;;;2.10;;
73814;SDS011;62145;55.648;37.602;2023-07-30T11:22:55;5.45;;;2.10;;
73814;SDS011;62145;55.648;37.602;2023-07-30T11:25:21;3.73;;;2.00;;
73814;SDS011;62145;55.648;37.602;2023-07-30T11:27:47;4.53;;;2.13;;
73814;SDS011;62145;55.648;37.602;2023-07-30T11:30:14;4.82;;;2.22;;
73814;SDS011;62145;55.648;37.602;2023-07-30T11:32:41;4.77;;;2.17;;
73814;SDS011;62145;55.648;37.602;2023-07-30T11:35:08;5.47;;;2.35;;
73814;SDS011;62145;55.648;37.602;2023-07-30T11:37:34;5.18;;;2.15;;
73814;SDS011;62145;55.648;37.602;2023-07-30T11:40:00;6.10;;;2.30;;
73814;SDS011;62145;55.648;37.602;2023-07-30T11:42:27;6.70;;;2.47;;
73814;SDS011;62145;55.648;37.602;2023-07-30T11:44:55;5.40;;;2.50;;
73814;SDS011;62145;55.648;37.602;2023-07-30T11:47:21;5.95;;;2.55;;
73814;SDS011;62145;55.648;37.602;2023-07-30T11:49:57;4.68;;;2.50;;
73814;SDS011;62145;55.648;37.602;2023-07-30T11:52:23;7.30;;;2.28;;
73814;SDS011;62145;55.648;37.602;2023-07-30T11:54:59;4.72;;;2.17;;
73814;SDS011;62145;55.648;37.602;2023-07-30T11:57:35;5.63;;;2.10;;
73814;SDS011;62145;55.648;37.602;2023-07-30T12:00:01;5.88;;;2.20;;
73814;SDS011;62145;55.648;37.602;2023-07-30T12:02:37;4.20;;;1.85;;
73814;SDS011;62145;55.648;37.602;2023-07-30T12:05:04;4.25;;;1.88;;
73814;SDS011;62145;55.648;37.602;2023-07-30T12:07:31;5.88;;;2.08;;
73814;SDS011;62145;55.648;37.602;2023-07-30T12:10:08;3.90;;;2.00;;
73814;SDS011;62145;55.648;37.602;2023-07-30T12:12:35;5.30;;;2.10;;
73814;SDS011;62145;55.648;37.602;2023-07-30T12:15:01;4.60;;;1.98;;
73814;SDS011;62145;55.648;37.602;2023-07-30T12:17:29;4.15;;;1.88;;
73814;SDS011;62145;55.648;37.602;2023-07-30T12:19:55;6.90;;;2.27;;
73814;SDS011;62145;55.648;37.602;2023-07-30T12:22:21;5.22;;;2.00;;
73814;SDS011;62145;55.648;37.602;2023-07-30T12:24:47;8.40;;;1.92;;
73814;SDS011;62145;55.648;37.602;2023-07-30T12:27:12;5.17;;;2.10;;
73814;SDS011;62145;55.648;37.602;2023-07-30T12:29:38;5.10;;;1.80;;
73814;SDS011;62145;55.648;37.602;2023-07-30T12:32:04;4.80;;;1.60;;
73814;SDS011;62145;55.648;37.602;2023-07-30T12:34:30;4.47;;;2.10;;
73814;SDS011;62145;55.648;37.602;2023-07-30T12:36:56;4.22;;;1.80;;
73814;SDS011;62145;55.648;37.602;2023-07-30T12:39:23;4.80;;;2.07;;
73814;SDS011;62145;55.648;37.602;2023-07-30T12:41:49;4.30;;;1.90;;
73814;SDS011;62145;55.648;37.602;2023-07-30T12:44:15;4.07;;;1.90;;
73814;SDS011;62145;55.648;37.602;2023-07-30T12:46:41;4.97;;;2.03;;
73814;SDS011;62145;55.648;37.602;2023-07-30T12:49:07;4.13;;;1.80;;
73814;SDS011;62145;55.648;37.602;2023-07-30T12:51:33;3.78;;;1.80;;
73814;SDS011;62145;55.648;37.602;2023-07-30T12:53:59;4.40;;;1.88;;
73814;SDS011;62145;55.648;37.602;2023-07-30T12:56:25;4.27;;;1.73;;
73814;SDS011;62145;55.648;37.602;2023-07-30T12:58:51;3.85;;;1.60;;
73814;SDS011;62145;55.648;37.602;2023-07-30T13:01:17;4.78;;;1.80;;
73814;SDS011;62145;55.648;37.602;2023-07-30T13:03:45;5.10;;;1.65;;
73814;SDS011;62145;55.648;37.602;2023-07-30T13:06:12;4.43;;;1.50;;
73814;SDS011;62145;55.648;37.602;2023-07-30T13:08:38;4.60;;;1.90;;
73814;SDS011;62145;55.648;37.602;2023-07-30T13:11:05;3.72;;;1.80;;
73814;SDS011;62145;55.648;37.602;2023-07-30T13:13:31;4.30;;;1.98;;
73814;SDS011;62145;55.648;37.602;2023-07-30T13:15:58;4.68;;;1.80;;
73814;SDS011;62145;55.648;37.602;2023-07-30T13:18:26;5.50;;;1.80;;
73814;SDS011;62145;55.648;37.602;2023-07-30T13:20:53;5.32;;;1.98;;
73814;SDS011;62145;55.648;37.602;2023-07-30T13:23:18;4.18;;;1.60;;
73814;SDS011;62145;55.648;37.602;2023-07-30T13:25:44;4.43;;;1.90;;
73814;SDS011;62145;55.648;37.602;2023-07-30T13:28:10;4.30;;;1.60;;
73814;SDS011;62145;55.648;37.602;2023-07-30T13:30:36;3.40;;;1.60;;
73814;SDS011;62145;55.648;37.602;2023-07-30T13:33:02;4.15;;;1.83;;
73814;SDS011;62145;55.648;37.602;2023-07-30T13:35:28;3.80;;;1.70;;
73814;SDS011;62145;55.648;37.602;2023-07-30T13:37:54;5.38;;;1.85;;
73814;SDS011;62145;55.648;37.602;2023-07-30T13:40:20;4.07;;;2.00;;
73814;SDS011;62145;55.648;37.602;2023-07-30T13:42:46;6.17;;;1.90;;
73814;SDS011;62145;55.648;37.602;2023-07-30T13:45:12;5.25;;;2.00;;
73814;SDS011;62145;55.648;37.602;2023-07-30T13:47:38;4.68;;;1.90;;
73814;SDS011;62145;55.648;37.602;2023-07-30T13:50:04;3.53;;;1.50;;
73814;SDS011;62145;55.648;37.602;2023-07-30T13:52:30;4.60;;;1.88;;
73814;SDS011;62145;55.648;37.602;2023-07-30T13:54:56;5.03;;;2.03;;
73814;SDS011;62145;55.648;37.602;2023-07-30T13:57:22;7.03;;;2.25;;
73814;SDS011;62145;55.648;37.602;2023-07-30T13:59:52;4.03;;;1.90;;
73814;SDS011;62145;55.648;37.602;2023-07-30T14:02:18;4.32;;;1.75;;
73814;SDS011;62145;55.648;37.602;2023-07-30T14:04:44;4.80;;;1.95;;
73814;SDS011;62145;55.648;37.602;2023-07-30T14:07:10;4.00;;;2.00;;
73814;SDS011;62145;55.648;37.602;2023-07-30T14:09:36;5.03;;;1.90;;
73814;SDS011;62145;55.648;37.602;2023-07-30T14:12:02;5.05;;;2.20;;
73814;SDS011;62145;55.648;37.602;2023-07-30T14:14:29;6.45;;;2.10;;
73814;SDS011;62145;55.648;37.602;2023-07-30T14:16:55;6.07;;;1.83;;
73814;SDS011;62145;55.648;37.602;2023-07-30T14:19:21;4.27;;;1.90;;
73814;SDS011;62145;55.648;37.602;2023-07-30T14:21:47;5.93;;;1.92;;
73814;SDS011;62145;55.648;37.602;2023-07-30T14:24:13;4.10;;;1.73;;
73814;SDS011;62145;55.648;37.602;2023-07-30T14:26:39;4.88;;;1.67;;
73814;SDS011;62145;55.648;37.602;2023-07-30T14:29:05;4.63;;;2.07;;
73814;SDS011;62145;55.648;37.602;2023-07-30T14:31:31;4.85;;;1.85;;
73814;SDS011;62145;55.648;37.602;2023-07-30T14:33:57;5.57;;;1.83;;
73814;SDS011;62145;55.648;37.602;2023-07-30T14:36:23;5.00;;;1.90;;
73814;SDS011;62145;55.648;37.602;2023-07-30T14:38:49;3.73;;;1.80;;